Latest Weather Observations for Central Arnhem Plateau

IDD60801

Issued at 3:01 pm CST Saturday 29 April 2017 (issued every 30 minutes, with the page automatically refreshed every 10 minutes)

About weather observations | Map of weather stations | Latest weather observations for NT | Other Formats
Station Details ID: 014909 Name: CENTRAL ARNHEM PLATEAU Lat: -13.33 Lon: 133.09 Height: 416.0 m
Data from the previous 72 hours. | See also: Recent months at Central Arnhem Plateau
Date/Time
CST
Temp
°C
App
Temp
°C
Dew
Point
°C
Rel
Hum
%
Delta-T
°C
Wind Press
QNH
hPa
Press
MSL
hPa
Rain since
9am
mm
Dir  Spd
km/h
Gust
km/h
Spd
kts
Gust
kts
29/03:00pm 29.7 27.4 11.7 33 10.6 E 15 22 8 12 1014.0 1011.1 0.0
29/02:30pm 28.6 26.4 10.8 33 10.3 ESE 13 24 7 13 1014.0 1011.1 0.0
29/02:00pm 28.2 24.8 10.4 33 10.2 E 19 26 10 14 1014.4 1011.5 0.0
29/01:30pm 28.5 25.3 11.1 34 10.1 ESE 19 26 10 14 1014.6 1011.7 0.0
29/01:00pm 27.9 24.1 9.7 32 10.3 E 20 28 11 15 1015.0 1012.2 0.0
29/12:30pm 27.4 24.1 9.7 33 10.0 ESE 17 28 9 15 1015.4 1012.6 0.0
29/12:00pm 26.7 23.0 9.5 34 9.7 E 19 28 10 15 1015.9 1013.1 0.0
29/11:30am 26.4 22.5 9.3 34 9.6 E 20 26 11 14 1016.3 1013.5 0.0
29/11:00am 25.5 20.8 7.6 32 9.7 E 22 30 12 16 1016.5 1013.6 0.0
29/10:30am 25.5 20.3 7.1 31 9.9 ESE 24 33 13 18 1016.2 1013.4 0.0
29/10:00am 24.5 18.4 6.7 32 9.4 ESE 28 39 15 21 1016.3 1013.5 0.0
29/09:30am 23.1 17.4 6.8 35 8.6 ESE 26 33 14 18 1016.0 1013.2 0.0
29/09:00am 22.4 17.6 8.9 42 7.3 ESE 24 33 13 18 1015.7 1012.9 0.0
29/08:30am 21.6 17.1 10.1 48 6.4 ESE 24 35 13 19 1015.6 1012.8 0.0
29/08:00am 20.7 16.8 10.8 53 5.5 ESE 22 30 12 16 1015.5 1012.7 0.0
29/07:30am 20.3 16.3 9.2 49 6.0 ESE 20 30 11 16 1015.3 1012.5 0.0
29/07:00am 20.0 15.9 8.7 48 6.0 ESE 20 28 11 15 1014.9 1012.1 0.0
29/06:30am 19.8 15.8 8.2 47 6.1 ESE 19 26 10 14 1014.7 1011.8 0.0
29/06:00am 19.6 16.5 8.9 50 5.7 ESE 15 17 8 9 1014.7 1011.8 0.0
29/05:30am 19.5 17.0 9.7 53 5.3 ESE 13 17 7 9 1014.5 1011.6 0.0
29/05:00am 19.6 17.0 10.6 56 5.0 E 15 20 8 11 1014.4 1011.5 0.0
29/04:30am 19.6 17.1 10.9 57 4.8 ESE 15 20 8 11 1014.2 1011.3 0.0
29/04:00am 19.8 16.9 11.0 57 4.9 ESE 17 20 9 11 1014.2 1011.3 0.0
29/03:30am 19.8 17.5 11.6 59 4.6 ESE 15 20 8 11 1014.3 1011.4 0.0
29/03:00am 19.7 17.8 12.9 65 3.9 ESE 15 19 8 10 1014.5 1011.6 0.0
29/02:30am 19.9 18.1 13.4 66 3.8 ESE 15 19 8 10 1014.9 1012.1 0.0
29/02:00am 20.3 18.6 13.7 66 3.9 ESE 15 20 8 11 1015.2 1012.4 0.0
29/01:30am 20.7 19.2 14.1 66 3.9 ESE 15 20 8 11 1015.6 1012.8 0.0
29/01:00am 21.0 19.4 13.9 64 4.2 ESE 15 19 8 10 1015.8 1013.0 0.0
29/12:30am 21.3 19.2 13.7 62 4.5 ESE 17 20 9 11 1016.2 1013.4 0.0
29/12:00am 21.8 20.5 13.7 60 4.8 ESE 13 17 7 9 1016.6 1013.7 0.0
 
Date/Time
CST
Temp
°C
App
Temp
°C
Dew
Point
°C
Rel
Hum
%
Delta-T
°C
Wind Press
QNH
hPa
Press
MSL
hPa
Rain since
9am
mm
Dir  Spd
km/h
Gust
km/h
Spd
kts
Gust
kts
28/11:30pm 22.1 20.4 13.7 59 5.0 ESE 15 20 8 11 1016.7 1013.8 0.0
28/11:00pm 22.6 21.0 13.9 58 5.2 ESE 15 20 8 11 1016.8 1013.9 0.0
28/10:30pm 23.1 21.5 13.8 55 5.5 ESE 15 22 8 12 1016.7 1013.8 0.0
28/10:00pm 23.5 21.9 13.9 55 5.7 ESE 15 20 8 11 1016.7 1013.8 0.0
28/09:30pm 23.8 22.6 13.9 54 5.9 ESE 13 19 7 10 1016.8 1013.9 0.0
28/09:00pm 24.0 23.7 14.4 55 5.8 ESE 9 15 5 8 1016.5 1013.6 0.0
28/08:30pm 24.2 23.6 14.6 55 5.8 SE 11 15 6 8 1016.1 1013.3 0.0
28/08:00pm 24.5 23.8 14.3 53 6.1 SE 11 15 6 8 1016.0 1013.2 0.0
28/07:30pm 24.8 23.6 14.0 51 6.5 ESE 13 17 7 9 1015.6 1012.8 0.0
28/07:00pm 25.3 24.1 14.1 50 6.7 SE 13 17 7 9 1015.2 1012.4 0.0
28/06:30pm 26.0 24.7 13.8 47 7.3 SE 13 15 7 8 1014.9 1012.1 0.0
28/06:00pm 26.8 25.1 13.5 44 8.0 ESE 15 20 8 11 1014.5 1011.6 0.0
28/05:30pm 27.7 25.5 13.3 41 8.6 SE 17 24 9 13 1014.4 1011.5 0.0
28/05:00pm 27.9 25.1 12.7 39 9.0 SE 19 26 10 14 1014.2 1011.3 0.0
28/04:30pm 28.4 25.9 12.3 37 9.5 ESE 17 26 9 14 1014.1 1011.2 0.0
28/04:00pm 28.8 25.6 11.8 35 10.0 ESE 20 30 11 16 1013.9 1011.0 0.0
28/03:30pm 29.1 26.1 12.5 36 9.9 E 20 32 11 17 1013.9 1011.0 0.0
28/03:00pm 29.0 25.8 12.0 35 10.1 E 20 30 11 16 1014.1 1011.2 0.0
28/02:30pm 29.0 25.4 12.0 35 10.1 E 22 30 12 16 1014.0 1011.1 0.0
28/02:00pm 28.9 25.7 11.9 35 10.0 E 20 32 11 17 1014.3 1011.4 0.0
28/01:30pm 28.4 24.9 11.0 34 10.1 ESE 20 30 11 16 1014.8 1012.0 0.0
28/01:00pm 27.5 23.3 11.1 36 9.5 E 24 32 13 17 1015.3 1012.5 0.0
28/12:30pm 27.4 23.3 11.4 37 9.3 E 24 35 13 19 1015.8 1013.0 0.0
28/12:00pm 27.4 22.9 11.4 37 9.3 ESE 26 41 14 22 1016.1 1013.3 0.0
28/11:30am 26.4 20.5 10.5 37 9.1 ESE 32 44 17 24 1016.2 1013.4 0.0
28/11:00am 25.4 19.8 10.1 38 8.6 ESE 30 43 16 23 1016.5 1013.6 0.0
28/10:30am 25.0 19.0 10.1 39 8.4 ESE 32 44 17 24 1016.7 1013.8 0.0
28/10:12am 24.9 19.5 9.6 38 8.5 ESE 28 46 15 25 1016.8 1013.9 0.0
28/10:00am 24.6 19.1 9.0 37 8.6 ESE 28 37 15 20 1016.7 1013.8 0.0
28/09:30am 24.3 18.7 8.7 37 8.5 ESE 28 41 15 22 1016.8 1013.9 0.0
28/09:00am 23.0 17.7 8.3 39 7.9 ESE 26 39 14 21 1016.8 1013.9 0.0
28/08:30am 22.6 17.3 8.3 40 7.7 ESE 26 39 14 21 1016.5 1013.6 0.0
28/08:00am 22.1 17.4 9.3 44 7.0 ESE 24 35 13 19 1016.2 1013.4 0.0
28/07:30am 21.3 17.9 11.1 52 5.7 ESE 20 28 11 15 1016.0 1013.2 0.0
28/07:00am 21.1 18.0 12.3 57 5.1 ESE 20 30 11 16 1015.8 1013.0 0.0
28/06:30am 21.2 18.8 13.9 63 4.3 ESE 19 30 10 16 1015.5 1012.7 0.0
28/06:00am 21.5 19.4 14.6 65 4.1 ESE 19 30 10 16 1015.2 1012.4 0.0
28/05:30am 21.9 20.1 15.5 67 3.9 ESE 19 28 10 15 1014.7 1011.8 0.0
28/05:00am 22.3 20.8 15.4 65 4.2 ESE 17 26 9 14 1014.4 1011.5 0.0
28/04:30am 22.5 21.1 14.4 60 4.8 ESE 15 20 8 11 1014.2 1011.3 0.0
28/04:00am 22.7 20.2 14.0 58 5.2 ESE 20 24 11 13 1013.6 1010.8 0.0
28/03:30am 22.7 20.4 14.0 58 5.2 E 19 26 10 14 1013.4 1010.6 0.0
28/03:00am 22.6 20.3 14.7 61 4.8 E 20 28 11 15 1012.9 1010.1 0.0
28/02:30am 22.5 19.6 15.1 63 4.5 ESE 24 33 13 18 1012.7 1009.9 0.0
28/02:00am 22.6 20.2 15.4 64 4.4 ESE 22 32 12 17 1012.9 1010.1 0.0
28/01:30am 22.8 20.1 14.6 60 4.9 E 22 30 12 16 1013.3 1010.5 0.0
28/01:00am 23.0 20.7 14.6 59 5.1 E 20 30 11 16 1014.1 1011.2 0.0
28/12:30am 23.4 21.3 14.7 58 5.3 E 19 26 10 14 1014.8 1012.0 0.0
28/12:00am 23.6 20.9 14.6 57 5.4 E 22 30 12 16 1015.0 1012.2 0.0
 
Date/Time
CST
Temp
°C
App
Temp
°C
Dew
Point
°C
Rel
Hum
%
Delta-T
°C
Wind Press
QNH
hPa
Press
MSL
hPa
Rain since
9am
mm
Dir  Spd
km/h
Gust
km/h
Spd
kts
Gust
kts
27/11:30pm 23.9 21.6 14.6 56 5.6 ESE 20 28 11 15 1015.5 1012.7 0.0
27/11:00pm 24.2 22.0 14.9 56 5.7 E 20 28 11 15 1015.9 1013.1 0.0
27/10:30pm 24.3 22.2 15.2 57 5.6 ESE 20 26 11 14 1016.1 1013.3 0.0
27/10:00pm 24.3 22.7 16.0 60 5.1 ESE 19 28 10 15 1016.3 1013.5 0.0
27/09:30pm 24.3 22.6 15.8 59 5.2 ESE 19 26 10 14 1016.2 1013.4 0.0
27/09:00pm 24.5 23.3 16.0 59 5.3 ESE 17 24 9 13 1015.8 1013.0 0.0
27/08:30pm 24.8 23.6 16.0 58 5.5 ESE 17 26 9 14 1015.5 1012.7 0.0
27/08:00pm 25.1 23.5 16.0 57 5.6 ESE 19 26 10 14 1015.1 1012.3 0.0
27/07:30pm 25.3 23.1 15.9 56 5.8 ESE 22 33 12 18 1014.6 1011.7 0.0
27/07:00pm 25.5 24.0 16.4 57 5.7 ESE 19 26 10 14 1014.3 1011.4 0.0
27/06:30pm 25.6 24.2 16.5 57 5.7 ESE 19 28 10 15 1013.6 1010.8 0.0
27/06:00pm 25.8 23.0 16.4 56 5.9 ESE 26 35 14 19 1013.4 1010.6 0.0
27/05:30pm 26.0 23.8 16.0 54 6.2 ESE 22 32 12 17 1013.0 1010.2 0.0
27/05:00pm 26.3 24.6 16.3 54 6.3 ESE 20 32 11 17 1012.9 1010.1 0.0
27/04:30pm 26.4 23.7 16.6 55 6.2 ESE 26 35 14 19 1012.6 1009.8 0.0
27/04:00pm 26.8 25.3 17.6 57 5.9 ESE 22 33 12 18 1012.2 1009.3 0.0
27/03:30pm 27.1 25.2 17.6 56 6.1 ESE 24 30 13 16 1012.0 1009.1 0.0
27/03:00pm 27.3 25.1 17.8 56 6.1 ESE 26 37 14 20 1012.2 1009.3 0.0
27/02:30pm 27.5 25.7 17.9 55 6.2 SE 24 33 13 18 1012.4 1009.5 0.0
27/02:00pm 28.3 26.2 18.1 54 6.6 ESE 26 33 14 18 1012.9 1010.1 0.0
27/01:30pm 27.4 24.9 18.1 57 6.0 SE 28 43 15 23 1013.3 1010.5 0.0
27/01:12pm 28.0 24.9 17.5 52 6.7 ESE 30 50 16 27 1013.5 1010.7 0.0
27/01:00pm 28.1 25.3 18.2 55 6.4 ESE 30 41 16 22 1013.6 1010.8 0.0
27/12:30pm 29.5 25.0 17.3 47 7.8 ESE 37 54 20 29 1013.9 1011.0 0.0
27/12:09pm 29.1 25.2 17.9 50 7.2 E 35 54 19 29 1014.1 1011.2 0.0
27/12:00pm 29.8 25.2 17.9 48 7.7 E 39 52 21 28 1014.1 1011.2 0.0
27/11:30am 29.2 25.7 18.0 51 7.3 ESE 33 61 18 33 1014.6 1011.7 0.0
27/11:02am 28.3 23.7 18.1 54 6.6 E 39 57 21 31 1014.8 1012.0 0.0
27/11:00am 28.3 23.4 18.1 54 6.6 ESE 41 57 22 31 1014.8 1012.0 0.0
27/10:48am 27.5 24.7 18.2 57 6.0 ESE 30 48 16 26 1014.9 1012.1 0.0
27/10:30am 27.2 24.1 18.5 59 5.6 ESE 32 43 17 23 1015.4 1012.6 0.0
27/10:00am 26.2 24.1 18.9 64 4.7 ESE 28 39 15 21 1015.7 1012.9 0.0
27/09:30am 25.7 23.7 19.1 67 4.3 ESE 28 46 15 25 1015.5 1012.7 0.0
27/09:28am 25.6 23.7 19.3 68 4.1 ESE 28 46 15 25 1015.4 1012.6 0.0
27/09:00am 24.9 23.6 19.1 70 3.8 ESE 24 43 13 23 1015.2 1012.4 0.0
27/08:30am 24.8 22.9 19.4 72 3.5 ESE 28 35 15 19 1015.1 1012.3 0.0
27/08:01am 24.2 22.4 19.5 75 3.1 ESE 28 46 15 25 1015.1 1012.3 0.0
27/08:00am 24.3 22.9 19.6 75 3.1 ESE 26 46 14 25 1015.1 1012.3 0.0
27/07:30am 23.8 23.3 19.9 79 2.6 E 22 30 12 16 1014.8 1012.0 0.0
27/07:00am 23.2 23.2 19.8 81 2.2 ESE 19 30 10 16 1014.4 1011.5 0.0
27/06:30am 22.9 22.2 19.5 81 2.2 ESE 22 32 12 17 1013.5 1010.7 0.0
27/06:00am 23.0 22.3 19.6 81 2.2 E 22 30 12 16 1012.9 1010.1 0.0
27/05:30am 23.1 22.8 19.5 80 2.3 E 20 28 11 15 1012.5 1009.6 0.0
27/05:00am 23.0 22.6 19.4 80 2.3 E 20 30 11 16 1012.2 1009.3 0.0
27/04:30am 22.8 22.9 19.2 80 2.3 E 17 22 9 12 1012.1 1009.2 0.0
27/04:00am 22.7 22.9 19.3 81 2.2 E 17 22 9 12 1012.1 1009.2 0.0
27/03:30am 22.7 22.2 19.1 80 2.3 E 20 32 11 17 1012.0 1009.1 0.0
27/03:00am 22.8 21.6 19.2 80 2.3 E 24 35 13 19 1012.0 1009.1 0.0
27/02:30am 22.9 21.2 18.9 78 2.6 E 26 37 14 20 1012.2 1009.3 0.0
27/02:00am 23.0 21.1 18.5 76 2.9 E 26 41 14 22 1012.2 1009.3 0.0
27/01:30am 22.5 22.2 18.3 77 2.7 ESE 17 24 9 13 1012.7 1009.9 0.0
27/01:00am 22.6 21.3 18.2 76 2.8 E 22 33 12 18 1013.0 1010.2 0.0
27/12:30am 22.8 21.9 18.1 75 3.0 E 20 28 11 15 1013.4 1010.6 0.0
27/12:00am 22.9 22.0 17.8 73 3.2 E 19 26 10 14 1013.5 1010.7 0.0
 
Date/Time
CST
Temp
°C
App
Temp
°C
Dew
Point
°C
Rel
Hum
%
Delta-T
°C
Wind Press
QNH
hPa
Press
MSL
hPa
Rain since
9am
mm
Dir  Spd
km/h
Gust
km/h
Spd
kts
Gust
kts
26/11:30pm 22.8 21.9 17.7 73 3.2 ESE 19 30 10 16 1013.6 1010.8 0.0
26/11:00pm 23.1 21.4 17.3 70 3.6 ESE 22 32 12 17 1013.4 1010.6 0.0
26/10:30pm 23.4 20.6 16.4 64 4.3 ESE 26 33 14 18 1013.2 1010.4 0.0
26/10:00pm 23.0 21.8 17.5 71 3.5 ESE 20 28 11 15 1013.2 1010.4 0.0
26/09:30pm 23.1 22.3 18.0 73 3.2 ESE 19 26 10 14 1013.6 1010.8 0.0
26/09:00pm 22.9 22.2 18.2 75 3.0 ESE 19 24 10 13 1014.0 1011.1 0.0
26/08:30pm 22.9 21.7 18.4 76 2.9 ESE 22 32 12 17 1014.1 1011.2 0.0
26/08:00pm 23.3 21.4 18.6 75 3.0 E 26 39 14 21 1013.9 1011.0 0.0
26/07:45pm 24.5 21.2 17.0 63 4.7 ESE 30 48 16 26 1013.7 1010.9 0.0
26/07:30pm 25.3 21.1 15.6 55 6.0 ESE 32 46 17 25 1013.5 1010.7 0.0
26/07:00pm 25.8 21.1 14.9 51 6.7 E 33 54 18 29 1013.3 1010.5 0.0
26/06:53pm 25.9 22.5 16.7 57 5.8 E 30 50 16 27 1013.3 1010.5 0.0
26/06:30pm 25.7 25.6 19.6 69 4.0 E 19 26 10 14 1013.2 1010.4 0.0
26/06:00pm 27.3 26.2 18.6 59 5.7 E 22 32 12 17 1012.6 1009.8 0.0
26/05:30pm 27.8 26.4 17.9 54 6.4 E 22 33 12 18 1012.1 1009.2 0.0
26/05:00pm 28.3 27.4 18.1 54 6.6 E 20 32 11 17 1011.7 1008.8 0.0
26/04:30pm 28.8 27.7 17.7 51 7.2 E 20 28 11 15 1011.2 1008.4 0.0
26/04:00pm 29.2 27.8 18.0 51 7.3 E 22 32 12 17 1011.4 1008.5 0.0
26/03:30pm 28.9 28.0 18.1 52 7.0 E 20 28 11 15 1011.6 1008.7 0.0

Other Formats:

Comma delimited format used in spreadsheet applications
http://www.bom.gov.au/fwo/IDD60801/IDD60801.94141.axf

JavaScript Object Notation format (JSON) in row-major order
http://www.bom.gov.au/fwo/IDD60801/IDD60801.94141.json